Airfield :
LOGIN :

Register | Disclaimer

   EN    FR    IT 

 










Legend :    VFR   Marginal VFR   IFR   Intensive IFR   Very Intensive IFR
Visi :
Ceiling :
>= 8 km
>= 3000ft
5 to 8 km
1000 to 3000 ft
1500m to 5 km
500 to 1000 ft
800 to 1500m
200 to 500 ft
< 800m
< 200 ft
Symbols :   Thunderstorms  Fog  Heavy snow  Heavy precipitations  Wind > 20 kt
SIGMETs :     Misc.  Thunderstorms  Icing  Turbulence  Mountain Waves  Volcanic Ashes






- Airport Elevation : 102 ft
- IATA code : KEL


EDHK - Holtenau

CURRENT METAR :
  • 231350Z 24012KT 210V280 CAVOK 07/M01 Q1015

EXPIRED METARs :
  • 231250Z 26010KT 240V300 9999 VCSH FEW026 07/02 Q1016
  • 231220Z 24006KT 220V280 9999 -SHRA SCT035 07/01 Q1016
  • 231150Z 28007KT 9999 FEW035 06/01 Q1017
  • 231120Z 28008KT 9999 FEW030 06/01 Q1017
  • 231050Z 24007KT 200V290 9999 VCSH FEW031 BKN041 07/00 Q1017
  • 231020Z 28013KT 9999 -SHRA BKN035 06/01 Q1018
  • 230950Z 27013KT 230V290 9999 -SHRA BKN038 07/M01 Q1018
  • 230920Z 26009KT 210V290 9999 SCT031 08/M00 Q1018

TAF TAF EDHK
Valid from the 23 at 12:00 until the 23 at 19:00 UTC


231100Z 2312/2319 26010KT 9999 SCT035
BECMG 2316/2318 20006KT
PROB40
TEMPO 2317/2319 RA



MET'MAP, your aeronautical weather chart ! - Copyright ORBIFLY December 2007 - Disclaimer

ORBIFLY MET'MAP TEAM :

Programming & Development : Alexandra Zaïnal
Original concept : Baudouin d'Aumeries
Technical & hardware support : Manuel Goepfert
Assistance : Marc-Olivier Méhu




SOURCES & CREDITS :

   NOAA